Time;durP1;ratioP1;P1;durP2;ratioP2;P2;SDS_P1;SDS_P2;PMS_P1;PMS_P2;Temp;Humidity;BMP_temperature;BMP_pressure;BME280_temperature;BME280_humidity;BME280_pressure;Samples;Min_cycle;Max_cycle;Signal;HPM_P1;HPM_P2
2023/09/15 00:01:39;;;;;;;2.85;1.48;;;17.10;54.50;;;;;;4926495;28;20060;-58
2023/09/15 00:04:07;;;;;;;2.22;1.60;;;17.10;54.50;;;;;;4927515;28;20143;-58
2023/09/15 00:06:36;;;;;;;3.53;1.73;;;17.10;54.60;;;;;;4926130;28;20067;-57
2023/09/15 00:09:05;;;;;;;3.97;1.63;;;17.10;54.50;;;;;;4926312;28;20063;-57
2023/09/15 00:11:40;;;;;;;2.50;1.33;;;17.00;54.50;;;;;;4923862;28;20048;-59
2023/09/15 00:14:10;;;;;;;3.78;2.10;;;17.00;54.60;;;;;;4925319;28;20059;-57
2023/09/15 00:16:39;;;;;;;2.47;1.60;;;17.00;54.60;;;;;;4927219;28;20523;-58
2023/09/15 00:19:08;;;;;;;3.55;1.77;;;17.00;54.60;;;;;;4926093;28;20579;-57
2023/09/15 00:21:35;;;;;;;5.05;2.10;;;16.90;54.60;;;;;;4927458;28;20060;-57
2023/09/15 00:24:05;;;;;;;3.75;1.80;;;17.00;54.70;;;;;;4927185;28;20066;-58
2023/09/15 00:26:33;;;;;;;5.65;1.80;;;16.90;54.80;;;;;;4929526;28;20051;-57
2023/09/15 00:29:01;;;;;;;3.78;1.58;;;16.90;54.80;;;;;;4931678;28;20420;-58
2023/09/15 00:31:30;;;;;;;4.07;1.92;;;16.90;54.90;;;;;;4926022;28;20054;-57
2023/09/15 00:33:57;;;;;;;3.80;1.75;;;16.90;54.90;;;;;;4930556;28;20671;-57
2023/09/15 00:36:25;;;;;;;3.75;1.70;;;16.90;54.90;;;;;;4930504;28;20066;-58
2023/09/15 00:38:52;;;;;;;3.00;1.80;;;16.80;54.90;;;;;;4928321;28;20056;-59
2023/09/15 00:41:19;;;;;;;3.22;1.60;;;16.80;54.90;;;;;;4929776;28;20062;-59
2023/09/15 00:43:47;;;;;;;6.00;1.80;;;16.80;54.90;;;;;;4927018;28;20495;-57
2023/09/15 00:46:14;;;;;;;3.28;1.90;;;16.80;54.90;;;;;;4927812;28;20286;-57
2023/09/15 00:48:45;;;;;;;2.83;1.98;;;16.80;54.90;;;;;;4926998;28;20059;-57
2023/09/15 00:51:13;;;;;;;2.58;1.65;;;16.70;54.90;;;;;;4926078;28;20082;-57
2023/09/15 00:53:41;;;;;;;3.90;1.40;;;16.70;54.90;;;;;;4925735;28;20056;-59
2023/09/15 00:56:09;;;;;;;6.85;2.20;;;16.70;54.90;;;;;;4927362;28;20424;-58
2023/09/15 00:58:40;;;;;;;3.22;1.70;;;16.70;55.00;;;;;;4926425;28;20052;-58
2023/09/15 01:01:07;;;;;;;4.32;1.77;;;16.60;54.90;;;;;;4927821;28;20059;-59
2023/09/15 01:03:40;;;;;;;3.30;1.73;;;16.60;55.40;;;;;;4975190;23;20604;-64
2023/09/15 01:06:11;;;;;;;2.88;1.75;;;16.60;55.00;;;;;;4962363;28;20054;-64
2023/09/15 01:08:38;;;;;;;2.80;1.65;;;16.60;55.50;;;;;;4964212;28;20057;-63
2023/09/15 01:11:06;;;;;;;5.80;1.65;;;16.50;55.00;;;;;;4965269;28;20062;-63
2023/09/15 01:13:34;;;;;;;3.67;1.98;;;16.50;55.00;;;;;;4965349;28;20058;-64
2023/09/15 01:16:07;;;;;;;3.67;1.80;;;16.50;55.00;;;;;;4963760;28;20076;-63
2023/09/15 01:18:42;;;;;;;3.08;1.90;;;16.40;55.10;;;;;;4964898;28;20058;-64
2023/09/15 01:21:41;;;;;;;2.70;1.65;;;16.40;55.20;;;;;;4963478;28;20047;-63
2023/09/15 01:24:36;;;;;;;4.28;2.00;;;16.40;55.30;;;;;;4964851;28;20051;-64
2023/09/15 01:27:26;;;;;;;4.38;1.80;;;16.40;55.20;;;;;;4964896;28;20042;-63
2023/09/15 01:29:57;;;;;;;3.55;1.90;;;16.40;55.20;;;;;;4965379;28;20055;-64
2023/09/15 01:32:26;;;;;;;4.70;1.83;;;16.30;55.20;;;;;;4963859;28;20059;-64
2023/09/15 01:34:54;;;;;;;4.57;1.80;;;16.30;55.10;;;;;;4964089;28;20058;-63
2023/09/15 01:37:23;;;;;;;3.13;1.70;;;16.30;55.10;;;;;;4966792;28;20055;-62
2023/09/15 01:39:52;;;;;;;4.25;1.70;;;16.20;55.10;;;;;;4968967;28;20058;-65
2023/09/15 01:42:19;;;;;;;2.55;1.80;;;16.20;55.20;;;;;;4968026;28;20058;-63
2023/09/15 01:44:47;;;;;;;2.50;1.52;;;16.20;55.20;;;;;;4968691;28;20059;-63
2023/09/15 01:47:20;;;;;;;3.38;1.73;;;16.20;55.30;;;;;;4966694;28;20055;-63
2023/09/15 01:49:48;;;;;;;2.75;1.90;;;16.10;55.30;;;;;;4968457;28;20054;-64
2023/09/15 01:52:16;;;;;;;8.82;2.03;;;16.10;55.30;;;;;;4967123;28;20181;-63
2023/09/15 01:54:44;;;;;;;4.72;1.90;;;16.10;55.30;;;;;;4968521;28;20077;-64
2023/09/15 01:57:11;;;;;;;3.53;1.67;;;16.10;55.30;;;;;;4968746;28;20066;-62
2023/09/15 01:59:40;;;;;;;4.47;1.90;;;16.10;55.40;;;;;;4969256;28;20054;-63
2023/09/15 02:02:07;;;;;;;2.80;1.45;;;16.00;55.40;;;;;;4963658;28;20055;-63
2023/09/15 02:04:36;;;;;;;3.85;1.80;;;16.00;55.40;;;;;;4962278;28;20059;-63
2023/09/15 02:07:03;;;;;;;3.80;1.85;;;16.00;55.50;;;;;;4961380;28;20058;-63
2023/09/15 02:09:30;;;;;;;3.38;1.58;;;16.00;55.60;;;;;;4961804;28;20058;-63
2023/09/15 02:11:58;;;;;;;2.78;1.58;;;15.90;55.60;;;;;;4961231;28;20054;-64
2023/09/15 02:14:26;;;;;;;2.78;1.60;;;15.90;55.70;;;;;;4964036;28;20058;-63
2023/09/15 02:16:53;;;;;;;3.60;1.50;;;15.90;55.70;;;;;;4961874;28;20423;-62
2023/09/15 02:19:21;;;;;;;4.40;1.95;;;15.90;55.80;;;;;;4962239;28;20073;-60
2023/09/15 02:21:49;;;;;;;3.92;1.80;;;15.90;55.80;;;;;;4960637;28;20063;-58
2023/09/15 02:24:17;;;;;;;3.90;2.00;;;15.90;55.90;;;;;;4961939;28;21741;-57
2023/09/15 02:26:44;;;;;;;5.35;2.28;;;15.90;55.90;;;;;;4960272;28;20062;-57
2023/09/15 02:29:13;;;;;;;3.28;1.73;;;15.90;55.90;;;;;;4963547;28;20051;-57
2023/09/15 02:31:40;;;;;;;6.43;2.00;;;15.90;55.90;;;;;;4959579;28;20055;-58
2023/09/15 02:34:07;;;;;;;3.58;2.22;;;15.90;56.00;;;;;;4960806;28;20047;-58
2023/09/15 02:36:34;;;;;;;5.55;1.95;;;15.90;56.00;;;;;;4960147;28;20054;-58
2023/09/15 02:39:03;;;;;;;6.28;2.08;;;15.90;56.00;;;;;;4961981;28;20500;-58
2023/09/15 02:41:30;;;;;;;4.55;1.95;;;15.80;55.90;;;;;;4961104;28;20065;-58
2023/09/15 02:43:58;;;;;;;3.90;1.75;;;15.80;55.90;;;;;;4962666;28;20058;-62
2023/09/15 02:46:26;;;;;;;5.15;2.05;;;15.80;55.90;;;;;;4961325;28;20427;-61
2023/09/15 02:48:54;;;;;;;3.15;1.55;;;15.80;55.90;;;;;;4962393;28;20055;-58
2023/09/15 02:51:21;;;;;;;3.05;1.50;;;15.80;55.90;;;;;;4961476;28;20054;-59
2023/09/15 02:53:48;;;;;;;4.20;1.90;;;15.80;56.30;;;;;;4959310;28;20062;-57
2023/09/15 02:56:17;;;;;;;2.13;1.40;;;15.80;55.90;;;;;;4960833;28;20500;-57
2023/09/15 02:58:44;;;;;;;3.78;1.88;;;15.80;55.80;;;;;;4959478;28;20497;-58
2023/09/15 03:01:12;;;;;;;2.95;1.63;;;15.70;55.80;;;;;;4959970;28;20062;-59
2023/09/15 03:03:39;;;;;;;4.20;2.38;;;15.70;55.80;;;;;;4959764;28;20059;-60
2023/09/15 03:06:08;;;;;;;2.47;1.67;;;15.70;55.80;;;;;;4959403;28;20942;-57
2023/09/15 03:08:36;;;;;;;3.75;1.70;;;15.70;55.90;;;;;;4961521;28;20062;-60
2023/09/15 03:11:03;;;;;;;4.03;1.80;;;15.70;55.90;;;;;;4961315;28;20051;-57
2023/09/15 03:13:32;;;;;;;3.67;1.85;;;15.60;55.90;;;;;;4959650;28;20051;-57
2023/09/15 03:16:08;;;;;;;5.70;2.00;;;15.70;55.90;;;;;;4962933;28;20061;-58
2023/09/15 03:18:36;;;;;;;4.72;1.85;;;15.60;55.90;;;;;;4962618;28;20514;-61
2023/09/15 03:21:04;;;;;;;2.80;1.70;;;15.60;55.90;;;;;;4960651;28;20069;-57
2023/09/15 03:23:32;;;;;;;4.05;1.88;;;15.60;55.90;;;;;;4959360;28;20059;-57
2023/09/15 03:26:00;;;;;;;3.83;2.00;;;15.60;55.90;;;;;;4962989;28;20054;-57
2023/09/15 03:28:27;;;;;;;4.15;2.45;;;15.60;55.90;;;;;;4959075;28;20398;-63
2023/09/15 03:30:56;;;;;;;3.13;1.77;;;15.50;55.90;;;;;;4956645;28;20051;-63
2023/09/15 03:33:24;;;;;;;4.88;1.88;;;15.50;56.00;;;;;;4959619;28;20059;-62
2023/09/15 03:35:51;;;;;;;2.72;1.70;;;15.50;56.00;;;;;;4960669;28;20064;-63
2023/09/15 03:38:18;;;;;;;5.03;1.80;;;15.50;56.00;;;;;;4960449;28;20051;-62
2023/09/15 03:40:46;;;;;;;4.40;1.83;;;15.50;56.00;;;;;;4958877;28;20058;-63
2023/09/15 03:43:13;;;;;;;3.10;1.77;;;15.50;56.00;;;;;;4958919;28;20061;-63
2023/09/15 03:45:40;;;;;;;5.00;2.00;;;15.50;56.00;;;;;;4960061;28;20054;-63
2023/09/15 03:48:09;;;;;;;2.42;1.65;;;15.50;56.00;;;;;;4960152;28;20084;-63
2023/09/15 03:50:36;;;;;;;4.60;2.10;;;15.50;56.00;;;;;;4958984;28;20054;-63
2023/09/15 03:53:04;;;;;;;4.32;2.22;;;15.40;56.00;;;;;;4958831;28;20059;-63
2023/09/15 03:55:31;;;;;;;4.30;1.92;;;15.40;56.00;;;;;;4961826;28;20507;-62
2023/09/15 03:57:59;;;;;;;5.40;2.10;;;15.40;56.00;;;;;;4957279;28;20062;-63
2023/09/15 04:00:26;;;;;;;3.03;1.77;;;15.40;56.00;;;;;;4961057;28;20051;-63
2023/09/15 04:02:54;;;;;;;3.75;1.88;;;15.40;56.00;;;;;;4960501;28;20059;-63
2023/09/15 04:05:22;;;;;;;4.22;1.92;;;15.30;56.00;;;;;;4960159;28;20055;-63
2023/09/15 04:07:50;;;;;;;3.67;2.05;;;15.30;56.10;;;;;;4957312;28;20058;-63
2023/09/15 04:10:17;;;;;;;3.05;1.83;;;15.30;56.10;;;;;;4960661;28;20061;-63
2023/09/15 04:12:44;;;;;;;3.28;1.85;;;15.30;56.10;;;;;;4959020;28;20059;-63
2023/09/15 04:15:11;;;;;;;4.80;2.03;;;15.30;56.10;;;;;;4959365;28;20058;-63
2023/09/15 04:17:39;;;;;;;3.72;2.03;;;15.30;56.10;;;;;;4953683;28;20055;-63
2023/09/15 04:20:09;;;;;;;3.88;1.90;;;15.30;56.10;;;;;;4960240;28;20059;-63
2023/09/15 04:22:39;;;;;;;5.07;2.22;;;15.30;56.20;;;;;;4957489;28;20062;-63
2023/09/15 04:25:08;;;;;;;4.28;1.92;;;15.20;56.20;;;;;;4955431;28;20414;-63
2023/09/15 04:27:35;;;;;;;4.72;1.92;;;15.20;56.20;;;;;;4958758;28;20059;-64
2023/09/15 04:30:04;;;;;;;4.43;2.20;;;15.20;56.20;;;;;;4960615;28;20054;-63
2023/09/15 04:32:31;;;;;;;4.18;1.80;;;15.20;56.20;;;;;;4955559;28;20506;-63
2023/09/15 04:34:58;;;;;;;4.57;1.80;;;15.20;56.20;;;;;;4980319;28;20058;-63
2023/09/15 04:37:26;;;;;;;3.92;1.98;;;15.20;56.30;;;;;;4981687;28;20520;-58
2023/09/15 04:39:54;;;;;;;5.82;2.72;;;15.20;56.30;;;;;;4981934;28;20054;-58
2023/09/15 04:42:22;;;;;;;4.07;2.30;;;15.20;56.30;;;;;;4981128;28;20050;-58
2023/09/15 04:44:49;;;;;;;3.30;1.90;;;15.20;56.30;;;;;;4979529;28;20058;-58
2023/09/15 04:47:30;;;;;;;4.68;2.35;;;15.20;56.30;;;;;;4979960;28;20050;-57
2023/09/15 04:49:57;;;;;;;3.97;2.20;;;15.10;56.30;;;;;;4979802;28;20065;-57
2023/09/15 04:52:25;;;;;;;3.35;2.00;;;15.10;56.10;;;;;;4977186;28;20054;-57
2023/09/15 04:54:55;;;;;;;4.13;2.20;;;15.10;56.10;;;;;;4978878;28;20512;-60
2023/09/15 04:57:23;;;;;;;16.35;8.50;;;15.10;56.10;;;;;;4977609;28;20060;-59
2023/09/15 04:59:53;;;;;;;9.82;5.50;;;15.00;56.10;;;;;;4978696;28;20059;-58
2023/09/15 05:02:22;;;;;;;10.93;5.70;;;15.00;56.20;;;;;;4978350;28;20524;-58
2023/09/15 05:04:51;;;;;;;5.65;3.17;;;15.00;56.20;;;;;;4978742;28;20058;-59
2023/09/15 05:07:18;;;;;;;3.92;2.55;;;14.90;56.20;;;;;;4979110;28;20062;-57
2023/09/15 05:09:46;;;;;;;5.28;2.40;;;14.90;56.30;;;;;;4980435;28;20050;-57
2023/09/15 05:12:16;;;;;;;6.25;2.30;;;14.90;56.40;;;;;;4982541;28;20050;-57
2023/09/15 05:14:43;;;;;;;6.32;2.10;;;14.90;56.50;;;;;;4982552;28;20065;-58
2023/09/15 05:17:10;;;;;;;3.88;2.28;;;14.90;56.50;;;;;;4981949;28;20062;-58
2023/09/15 05:19:38;;;;;;;4.05;1.92;;;14.90;56.50;;;;;;4981606;28;20920;-58
2023/09/15 05:22:05;;;;;;;3.40;1.85;;;14.90;56.50;;;;;;4981143;28;20058;-58
2023/09/15 05:24:33;;;;;;;5.72;2.28;;;14.80;56.50;;;;;;4981298;28;20065;-58
2023/09/15 05:27:00;;;;;;;3.17;2.30;;;14.80;56.50;;;;;;4982851;28;20058;-59
2023/09/15 05:29:29;;;;;;;6.05;2.20;;;14.80;56.60;;;;;;4983840;28;20053;-58
2023/09/15 05:31:56;;;;;;;4.30;2.40;;;14.70;56.60;;;;;;4982613;28;20058;-57
2023/09/15 05:34:23;;;;;;;12.30;4.97;;;14.80;56.70;;;;;;4982776;28;20058;-57
2023/09/15 05:36:51;;;;;;;5.85;3.08;;;14.80;57.30;;;;;;4981386;28;20058;-59
2023/09/15 05:39:19;;;;;;;5.20;2.05;;;14.80;56.90;;;;;;4981379;28;20053;-59
2023/09/15 05:41:47;;;;;;;3.60;2.17;;;14.80;57.00;;;;;;4981229;28;20046;-57
2023/09/15 05:44:15;;;;;;;4.15;1.98;;;14.70;57.50;;;;;;4982078;28;20050;-57
2023/09/15 05:46:44;;;;;;;4.10;2.13;;;14.80;57.00;;;;;;4980295;28;20438;-58
2023/09/15 05:49:11;;;;;;;4.07;2.47;;;14.80;57.10;;;;;;4980281;28;20058;-57
2023/09/15 05:51:39;;;;;;;3.88;2.17;;;14.80;57.10;;;;;;4979983;28;20054;-57
2023/09/15 05:54:06;;;;;;;5.88;2.35;;;14.80;57.20;;;;;;4979721;28;20050;-58
2023/09/15 05:56:34;;;;;;;3.72;2.08;;;14.80;57.20;;;;;;4980727;28;20081;-59
2023/09/15 05:59:01;;;;;;;4.57;2.15;;;14.80;57.30;;;;;;4981818;28;20054;-58
2023/09/15 06:01:29;;;;;;;4.57;2.20;;;14.80;57.30;;;;;;4979958;28;20513;-60
2023/09/15 06:03:59;;;;;;;3.85;1.98;;;14.80;57.30;;;;;;4979404;28;20058;-58
2023/09/15 06:06:26;;;;;;;5.10;2.20;;;14.90;57.40;;;;;;4979569;28;20066;-58
2023/09/15 06:08:54;;;;;;;3.30;2.17;;;14.90;57.40;;;;;;4979467;28;20050;-60
2023/09/15 06:11:21;;;;;;;7.82;2.45;;;14.90;57.50;;;;;;4982811;28;20047;-57
2023/09/15 06:13:48;;;;;;;9.73;2.25;;;14.90;57.50;;;;;;4983030;28;20058;-58
2023/09/15 06:16:15;;;;;;;4.90;2.17;;;14.90;57.50;;;;;;4980778;28;20893;-57
2023/09/15 06:18:43;;;;;;;7.75;2.95;;;15.00;57.60;;;;;;4981839;28;20419;-57
2023/09/15 06:21:12;;;;;;;4.35;2.08;;;15.00;58.20;;;;;;4980218;28;20057;-58
2023/09/15 06:23:39;;;;;;;3.42;1.92;;;15.00;57.70;;;;;;4980525;28;20050;-57
2023/09/15 06:26:08;;;;;;;6.20;2.25;;;15.00;57.80;;;;;;4982748;28;20058;-57
2023/09/15 06:28:35;;;;;;;75.47;35.25;;;15.10;57.80;;;;;;4982030;28;20073;-59
2023/09/15 06:31:03;;;;;;;25.40;12.68;;;15.10;57.90;;;;;;4979715;28;20053;-58
2023/09/15 06:33:30;;;;;;;10.05;4.85;;;15.10;57.90;;;;;;4981430;28;20050;-58
2023/09/15 06:35:58;;;;;;;8.60;3.30;;;15.10;58.00;;;;;;4982685;28;20062;-58
2023/09/15 06:38:27;;;;;;;5.68;2.75;;;15.20;58.00;;;;;;4981919;28;20054;-57
2023/09/15 06:40:54;;;;;;;4.25;2.25;;;15.20;58.00;;;;;;4981670;28;20078;-58
2023/09/15 06:43:22;;;;;;;5.13;2.35;;;15.30;58.00;;;;;;4983071;28;20050;-57
2023/09/15 06:45:49;;;;;;;5.10;2.13;;;15.30;58.10;;;;;;4982836;28;20050;-57
2023/09/15 06:48:16;;;;;;;5.50;2.00;;;15.30;58.10;;;;;;4983405;28;20054;-57
2023/09/15 06:50:43;;;;;;;5.82;2.50;;;15.40;58.20;;;;;;4980755;28;20073;-57
2023/09/15 06:53:11;;;;;;;3.75;2.13;;;15.40;58.20;;;;;;4981866;28;20411;-58
2023/09/15 06:55:39;;;;;;;5.47;2.25;;;15.50;58.20;;;;;;4979884;28;20053;-58
2023/09/15 06:58:06;;;;;;;4.82;2.42;;;15.50;58.20;;;;;;4977276;28;20054;-62
2023/09/15 07:00:34;;;;;;;4.95;2.08;;;15.60;58.30;;;;;;4981807;28;20097;-63
2023/09/15 07:03:01;;;;;;;3.90;2.30;;;15.60;58.20;;;;;;4979720;28;20065;-62
2023/09/15 07:05:28;;;;;;;7.57;2.50;;;15.70;58.20;;;;;;4981504;28;20061;-61
2023/09/15 07:07:55;;;;;;;4.20;2.33;;;15.70;58.20;;;;;;4979190;28;20069;-62
2023/09/15 07:10:23;;;;;;;23.88;10.95;;;15.80;58.70;;;;;;4980273;28;20402;-62
2023/09/15 07:12:52;;;;;;;12.52;6.07;;;15.80;58.20;;;;;;4980756;28;20057;-63
2023/09/15 07:15:19;;;;;;;9.95;3.28;;;15.80;58.20;;;;;;4981899;28;20050;-64
2023/09/15 07:17:47;;;;;;;7.45;2.33;;;15.90;58.20;;;;;;4981985;28;20062;-64
2023/09/15 07:20:14;;;;;;;8.65;2.40;;;15.90;58.10;;;;;;4977170;28;20062;-63
2023/09/15 07:22:41;;;;;;;5.47;2.35;;;16.00;58.10;;;;;;4979956;28;20050;-62
2023/09/15 07:25:09;;;;;;;6.53;2.53;;;16.00;58.10;;;;;;4977670;28;20410;-62
2023/09/15 07:27:36;;;;;;;4.32;2.22;;;16.10;58.20;;;;;;4982295;28;20061;-62
2023/09/15 07:30:06;;;;;;;5.85;2.30;;;16.10;58.20;;;;;;4982303;28;20054;-63
2023/09/15 07:32:34;;;;;;;3.72;1.80;;;16.20;58.20;;;;;;4980530;28;20053;-63
2023/09/15 07:35:01;;;;;;;6.60;2.28;;;16.20;58.20;;;;;;4981003;28;20063;-62
2023/09/15 07:37:28;;;;;;;4.13;2.17;;;16.30;58.20;;;;;;4978835;28;20050;-62
2023/09/15 07:39:56;;;;;;;5.88;2.30;;;16.30;58.20;;;;;;4982115;28;20406;-63
2023/09/15 07:42:23;;;;;;;7.95;2.60;;;16.30;58.20;;;;;;4980956;28;20050;-63
2023/09/15 07:44:50;;;;;;;3.55;2.13;;;16.40;58.20;;;;;;4980117;28;20065;-64
2023/09/15 07:47:19;;;;;;;7.65;2.33;;;16.50;58.30;;;;;;4979278;28;20061;-63
2023/09/15 07:49:48;;;;;;;5.80;2.40;;;16.50;58.30;;;;;;4977753;28;20058;-63
2023/09/15 07:52:15;;;;;;;9.75;2.72;;;16.50;58.30;;;;;;4980220;28;20054;-63
2023/09/15 07:54:42;;;;;;;11.65;2.55;;;16.60;58.30;;;;;;4982761;28;20084;-62
2023/09/15 07:57:09;;;;;;;4.32;2.28;;;16.60;58.30;;;;;;4981641;28;20498;-61
2023/09/15 07:59:37;;;;;;;6.97;2.30;;;16.70;58.30;;;;;;4980644;28;20065;-63
2023/09/15 08:02:04;;;;;;;5.65;2.28;;;16.70;58.20;;;;;;4982206;28;20051;-63
2023/09/15 08:04:33;;;;;;;6.72;2.38;;;16.80;58.20;;;;;;4982559;28;20054;-63
2023/09/15 08:07:01;;;;;;;5.50;2.63;;;16.80;58.20;;;;;;4981610;28;20050;-64
2023/09/15 08:09:28;;;;;;;3.90;2.25;;;16.90;58.20;;;;;;4981055;28;20062;-63
2023/09/15 08:11:59;;;;;;;6.90;2.10;;;16.90;58.20;;;;;;4983284;28;20506;-64
2023/09/15 08:14:27;;;;;;;3.78;1.80;;;16.90;58.20;;;;;;4982105;28;20054;-65
2023/09/15 08:16:54;;;;;;;5.15;2.58;;;17.00;58.30;;;;;;4982077;28;20063;-67
2023/09/15 08:19:22;;;;;;;9.05;2.60;;;17.10;58.30;;;;;;4981118;28;20065;-63
2023/09/15 08:21:51;;;;;;;4.97;2.10;;;17.10;58.30;;;;;;4979366;28;20054;-66
2023/09/15 08:24:20;;;;;;;5.65;2.10;;;17.20;58.40;;;;;;4982523;28;20061;-64
2023/09/15 08:26:47;;;;;;;7.47;2.25;;;17.20;58.40;;;;;;4978194;28;20529;-63
2023/09/15 08:29:14;;;;;;;3.80;1.70;;;17.30;58.40;;;;;;4979360;28;20066;-63
2023/09/15 08:31:42;;;;;;;5.55;2.35;;;17.30;58.40;;;;;;4982067;28;20061;-64
2023/09/15 08:34:09;;;;;;;5.20;2.17;;;17.30;58.50;;;;;;4980586;28;20497;-64
2023/09/15 08:36:36;;;;;;;5.32;1.83;;;17.40;58.60;;;;;;4979514;28;20057;-64
2023/09/15 08:39:05;;;;;;;5.70;2.33;;;17.50;58.60;;;;;;4982730;28;20054;-63
2023/09/15 08:41:40;;;;;;;6.15;2.08;;;17.50;58.60;;;;;;4981545;28;20502;-64
2023/09/15 08:44:09;;;;;;;5.97;2.40;;;17.60;58.60;;;;;;4981707;28;20414;-66
2023/09/15 08:46:39;;;;;;;6.63;2.40;;;17.60;58.60;;;;;;4982160;28;20060;-63
2023/09/15 08:49:08;;;;;;;9.88;2.97;;;17.70;58.60;;;;;;4981138;28;20092;-65
2023/09/15 08:51:35;;;;;;;4.78;2.28;;;17.70;58.60;;;;;;4979507;28;20433;-64
2023/09/15 08:54:03;;;;;;;8.05;2.40;;;17.80;58.70;;;;;;4982277;28;20065;-66
2023/09/15 08:56:32;;;;;;;3.42;1.83;;;17.80;58.60;;;;;;4979916;28;20046;-64
2023/09/15 08:59:00;;;;;;;4.43;1.90;;;17.90;58.70;;;;;;4980259;28;20069;-64
2023/09/15 09:01:27;;;;;;;7.47;2.53;;;18.00;58.70;;;;;;4980866;28;20494;-65
2023/09/15 09:03:55;;;;;;;5.75;2.42;;;18.00;58.60;;;;;;4979745;28;20066;-65
2023/09/15 09:06:24;;;;;;;6.13;1.90;;;18.10;58.70;;;;;;4980061;28;20057;-63
2023/09/15 09:08:51;;;;;;;7.72;2.00;;;18.10;58.60;;;;;;4981893;28;20777;-64
2023/09/15 09:11:18;;;;;;;4.10;1.98;;;18.20;58.60;;;;;;4980504;28;20050;-64
2023/09/15 09:13:53;;;;;;;5.82;2.38;;;18.20;58.50;;;;;;4982492;28;20078;-64
2023/09/15 09:16:21;;;;;;;6.80;2.58;;;18.30;58.50;;;;;;4982095;28;20054;-59
2023/09/15 09:18:58;;;;;;;4.57;2.10;;;18.40;58.50;;;;;;4981082;28;20050;-58
2023/09/15 09:21:27;;;;;;;6.03;2.10;;;18.40;58.50;;;;;;4981053;28;20422;-64
2023/09/15 09:23:55;;;;;;;7.57;2.28;;;18.50;58.50;;;;;;4977450;28;20521;-58
2023/09/15 09:26:22;;;;;;;12.18;2.35;;;18.50;58.30;;;;;;4976319;28;20798;-63
2023/09/15 09:28:54;;;;;;;4.55;1.90;;;18.60;58.40;;;;;;4975922;28;20525;-62
2023/09/15 09:31:24;;;;;;;5.30;2.45;;;18.60;58.40;;;;;;4979134;28;20057;-61
2023/09/15 09:33:51;;;;;;;3.90;2.22;;;18.70;58.40;;;;;;4981844;28;20054;-57
2023/09/15 09:36:18;;;;;;;4.55;2.28;;;18.80;58.40;;;;;;4980764;28;20410;-57
2023/09/15 09:38:47;;;;;;;4.88;1.90;;;18.80;58.40;;;;;;4981146;28;20058;-62
2023/09/15 09:41:16;;;;;;;4.32;2.08;;;18.90;58.30;;;;;;4978939;28;20050;-61
2023/09/15 09:43:46;;;;;;;3.85;2.10;;;18.90;58.20;;;;;;4981117;28;20065;-58
2023/09/15 09:46:14;;;;;;;2.97;1.95;;;19.00;58.00;;;;;;4981202;28;20054;-59
2023/09/15 09:48:43;;;;;;;5.05;2.00;;;19.00;57.90;;;;;;4982287;28;20062;-57
2023/09/15 09:51:13;;;;;;;5.47;1.88;;;19.10;57.90;;;;;;4979052;28;20069;-58
2023/09/15 09:53:41;;;;;;;3.95;1.65;;;19.10;57.70;;;;;;4980481;28;20051;-56
2023/09/15 09:56:08;;;;;;;5.97;2.10;;;19.20;57.80;;;;;;4981338;28;20414;-60
2023/09/15 09:58:38;;;;;;;9.75;2.00;;;19.30;57.70;;;;;;4982890;28;20497;-57
2023/09/15 10:01:06;;;;;;;3.53;1.90;;;19.40;57.50;;;;;;4981498;28;20512;-60
2023/09/15 10:03:33;;;;;;;3.30;1.85;;;19.40;57.20;;;;;;4981589;28;20054;-61
2023/09/15 10:06:03;;;;;;;3.33;2.03;;;19.50;57.00;;;;;;4980625;28;20054;-58
2023/09/15 10:08:32;;;;;;;2.95;1.98;;;19.50;56.80;;;;;;4983858;28;20085;-59
2023/09/15 10:10:59;;;;;;;4.85;2.20;;;19.60;56.60;;;;;;4983486;28;20418;-58
2023/09/15 10:13:29;;;;;;;6.63;2.20;;;19.70;56.40;;;;;;4983206;28;20474;-58
2023/09/15 10:15:57;;;;;;;2.67;1.88;;;19.70;56.30;;;;;;4983809;28;20061;-58
2023/09/15 10:18:25;;;;;;;4.30;2.05;;;19.70;56.20;;;;;;4980440;28;20053;-61
2023/09/15 10:20:55;;;;;;;4.38;2.28;;;19.80;56.10;;;;;;4981339;28;20138;-61
2023/09/15 10:23:24;;;;;;;3.03;1.90;;;19.90;56.10;;;;;;4981832;28;20512;-59
2023/09/15 10:25:52;;;;;;;5.25;1.95;;;19.90;55.90;;;;;;4982822;28;20054;-57
2023/09/15 10:28:22;;;;;;;4.78;1.85;;;20.00;55.80;;;;;;4981513;28;20046;-65
2023/09/15 10:30:55;;;;;;;4.00;1.95;;;20.00;55.70;;;;;;4984095;28;20429;-67
2023/09/15 10:33:23;;;;;;;5.75;2.10;;;20.00;55.20;;;;;;4984709;28;20062;-64
2023/09/15 10:35:51;;;;;;;3.55;1.70;;;20.10;55.30;;;;;;4982825;28;20418;-66
2023/09/15 10:38:29;;;;;;;3.05;1.98;;;20.10;55.20;;;;;;4983191;28;20047;-66
2023/09/15 10:40:58;;;;;;;3.28;1.40;;;20.20;55.30;;;;;;4982108;28;20483;-63
2023/09/15 10:43:25;;;;;;;3.92;1.55;;;20.30;55.20;;;;;;4982876;28;20050;-64
2023/09/15 10:45:57;;;;;;;4.03;1.98;;;20.30;55.00;;;;;;4981821;28;20054;-63
2023/09/15 10:48:25;;;;;;;4.07;1.92;;;20.30;55.00;;;;;;4981009;28;20414;-67
2023/09/15 10:50:53;;;;;;;4.10;1.70;;;20.40;54.80;;;;;;4979663;28;20403;-65
2023/09/15 10:53:21;;;;;;;3.60;1.80;;;20.50;54.90;;;;;;4977847;28;20057;-66
2023/09/15 10:55:55;;;;;;;4.45;1.95;;;20.50;54.70;;;;;;4978766;28;20061;-64
2023/09/15 10:58:23;;;;;;;11.05;2.00;;;20.50;54.60;;;;;;4980589;28;20050;-64
2023/09/15 11:00:50;;;;;;;3.83;1.85;;;20.60;54.60;;;;;;4979553;28;20050;-65
2023/09/15 11:03:20;;;;;;;2.78;1.55;;;20.70;54.40;;;;;;4979591;28;20069;-66
2023/09/15 11:05:47;;;;;;;4.50;1.70;;;20.70;54.10;;;;;;4980601;28;20474;-66
2023/09/15 11:08:15;;;;;;;4.15;1.85;;;20.70;54.10;;;;;;4979684;28;20054;-65
2023/09/15 11:10:43;;;;;;;2.30;1.60;;;20.80;54.10;;;;;;4981443;28;20521;-64
2023/09/15 11:13:12;;;;;;;3.65;1.67;;;20.80;54.20;;;;;;4980427;28;20399;-62
2023/09/15 11:15:39;;;;;;;3.03;1.33;;;20.90;54.10;;;;;;4980284;28;20134;-65
2023/09/15 11:18:07;;;;;;;6.00;1.95;;;20.90;54.00;;;;;;4979956;28;20054;-65
2023/09/15 11:20:34;;;;;;;1.60;1.10;;;21.00;54.00;;;;;;4980286;28;20058;-63
2023/09/15 11:23:02;;;;;;;3.47;1.50;;;21.00;53.90;;;;;;4979139;28;20094;-65
2023/09/15 11:25:29;;;;;;;3.08;1.42;;;21.10;53.70;;;;;;4979167;28;20046;-66
2023/09/15 11:27:57;;;;;;;3.92;1.75;;;21.10;53.70;;;;;;4979555;28;20065;-65
2023/09/15 11:30:27;;;;;;;3.20;1.52;;;21.20;53.50;;;;;;4980627;28;21254;-65
2023/09/15 11:32:55;;;;;;;4.65;1.90;;;21.20;53.40;;;;;;4983106;28;20529;-61
2023/09/15 11:35:25;;;;;;;2.70;1.52;;;21.20;53.30;;;;;;4979511;28;20046;-63
2023/09/15 11:37:52;;;;;;;4.53;1.65;;;21.30;53.10;;;;;;4980908;28;20054;-61
2023/09/15 11:40:21;;;;;;;3.15;2.03;;;21.30;53.00;;;;;;4981789;28;20057;-58
2023/09/15 11:42:55;;;;;;;5.63;1.67;;;21.40;53.00;;;;;;4980287;28;20400;-57
2023/09/15 11:45:25;;;;;;;2.83;1.65;;;21.40;53.10;;;;;;4981135;28;20617;-58
2023/09/15 11:47:55;;;;;;;2.90;1.73;;;21.50;53.10;;;;;;4977678;28;20410;-58
2023/09/15 11:50:22;;;;;;;3.85;2.20;;;21.50;52.70;;;;;;4978283;28;20057;-59
2023/09/15 11:52:50;;;;;;;3.05;1.95;;;21.60;52.50;;;;;;4979122;28;20054;-57
2023/09/15 11:55:18;;;;;;;4.03;1.80;;;21.60;52.60;;;;;;4981246;28;20050;-55
2023/09/15 11:57:46;;;;;;;1.95;1.33;;;21.60;52.50;;;;;;4977731;28;20539;-55
2023/09/15 12:00:16;;;;;;;8.50;2.15;;;21.70;52.40;;;;;;4981874;28;20058;-54
2023/09/15 12:02:45;;;;;;;3.83;2.00;;;21.70;52.20;;;;;;4975873;28;20062;-58
2023/09/15 12:05:15;;;;;;;3.53;1.60;;;21.80;52.10;;;;;;4979265;28;20065;-55
2023/09/15 12:07:44;;;;;;;2.05;1.73;;;21.80;51.90;;;;;;4977480;28;20069;-57
2023/09/15 12:10:13;;;;;;;2.60;1.48;;;21.80;51.90;;;;;;4978722;28;20058;-58
2023/09/15 12:12:40;;;;;;;4.72;2.03;;;21.90;52.10;;;;;;4978379;28;20051;-58
2023/09/15 12:15:08;;;;;;;2.70;1.60;;;21.90;52.20;;;;;;4977761;28;20061;-56
2023/09/15 12:17:36;;;;;;;2.40;1.70;;;22.00;52.10;;;;;;4977536;28;20516;-57
2023/09/15 12:20:05;;;;;;;3.70;1.50;;;22.00;52.50;;;;;;4977269;28;20050;-57
2023/09/15 12:22:34;;;;;;;3.05;1.70;;;22.10;51.90;;;;;;4974717;28;20046;-56
2023/09/15 12:25:01;;;;;;;6.45;2.13;;;22.10;51.70;;;;;;4977906;28;20054;-56
2023/09/15 12:27:29;;;;;;;3.42;1.63;;;22.20;51.80;;;;;;4977571;28;20054;-60
2023/09/15 12:29:58;;;;;;;4.70;1.75;;;22.20;51.60;;;;;;4981710;28;20077;-57
2023/09/15 12:32:27;;;;;;;4.10;1.80;;;22.30;51.30;;;;;;4978807;28;20485;-55
2023/09/15 12:34:54;;;;;;;2.65;1.95;;;22.30;51.10;;;;;;4977205;28;20074;-58
2023/09/15 12:37:22;;;;;;;4.03;1.90;;;22.40;51.00;;;;;;4977610;28;20054;-60
2023/09/15 12:39:51;;;;;;;4.32;1.77;;;22.40;51.00;;;;;;4980162;28;20054;-55
2023/09/15 12:42:18;;;;;;;4.25;1.55;;;22.40;50.70;;;;;;4979087;28;20073;-57
2023/09/15 12:44:46;;;;;;;3.85;1.75;;;22.50;50.90;;;;;;4976861;28;20411;-59
2023/09/15 12:47:14;;;;;;;2.75;1.88;;;22.50;50.30;;;;;;4978949;28;20046;-57
2023/09/15 12:49:41;;;;;;;3.28;1.98;;;22.50;50.20;;;;;;4980549;28;20421;-57
2023/09/15 12:52:09;;;;;;;2.30;1.83;;;22.60;50.10;;;;;;4979630;28;20435;-55